createdAt,value
2023-04-09T00:01:09.480Z,101027.33
2023-04-09T00:03:39.456Z,101029.21
2023-04-09T00:06:07.866Z,101028.85
2023-04-09T00:08:36.228Z,101027.30
2023-04-09T00:11:04.888Z,101026.20
2023-04-09T00:13:39.032Z,101024.99
2023-04-09T00:16:08.862Z,101030.34
2023-04-09T00:18:37.352Z,101024.48
2023-04-09T00:21:05.996Z,101023.83
2023-04-09T00:23:34.893Z,101025.57
2023-04-09T00:26:03.305Z,101022.50
2023-04-09T00:28:31.580Z,101022.69
2023-04-09T00:30:59.818Z,101021.48
2023-04-09T00:33:28.136Z,101018.02
2023-04-09T00:35:57.037Z,101016.61
2023-04-09T00:38:25.170Z,101012.28
2023-04-09T00:40:53.435Z,101014.52
2023-04-09T00:43:21.852Z,101008.83
2023-04-09T00:45:50.221Z,101007.48
2023-04-09T00:48:18.573Z,101010.08
2023-04-09T00:50:46.781Z,101009.08
2023-04-09T00:53:16.254Z,101006.84
2023-04-09T00:55:46.001Z,101001.52
2023-04-09T00:58:14.949Z,101002.89
2023-04-09T01:00:43.022Z,101002.70
2023-04-09T01:03:11.435Z,101003.89
2023-04-09T01:05:50.526Z,101006.15
2023-04-09T01:08:47.188Z,101007.06
2023-04-09T01:11:32.310Z,101007.05
2023-04-09T01:14:19.769Z,101009.45
2023-04-09T01:16:56.009Z,101009.30
2023-04-09T01:19:44.682Z,101009.70
2023-04-09T01:22:35.719Z,101011.98
2023-04-09T01:25:15.895Z,101011.48
2023-04-09T01:28:19.769Z,101008.02
2023-04-09T01:30:51.228Z,101010.80
2023-04-09T01:33:21.497Z,101015.09
2023-04-09T01:35:51.135Z,101018.52
2023-04-09T01:38:22.003Z,101021.61
2023-04-09T01:40:51.102Z,101027.14
2023-04-09T01:43:20.367Z,101028.00
2023-04-09T01:45:48.999Z,101029.06
2023-04-09T01:48:17.078Z,101029.05
2023-04-09T01:50:45.809Z,101032.51
2023-04-09T01:53:14.391Z,101029.92
2023-04-09T01:55:42.380Z,101031.64
2023-04-09T01:58:10.429Z,101035.35
2023-04-09T02:00:43.820Z,101036.67
2023-04-09T02:03:22.302Z,101034.27
2023-04-09T02:05:57.724Z,101033.91
2023-04-09T02:08:28.314Z,101026.80
2023-04-09T02:10:59.250Z,101025.90
2023-04-09T02:13:30.030Z,101024.90
2023-04-09T02:16:00.310Z,101025.64
2023-04-09T02:18:30.336Z,101025.86
2023-04-09T02:20:59.587Z,101030.38
2023-04-09T02:23:27.809Z,101028.53
2023-04-09T02:25:56.691Z,101022.17
2023-04-09T02:28:24.648Z,101023.33
2023-04-09T02:30:52.939Z,101024.02
2023-04-09T02:33:21.103Z,101024.54
2023-04-09T02:35:49.131Z,101020.39
2023-04-09T02:38:17.355Z,101024.73
2023-04-09T02:40:45.851Z,101027.19
2023-04-09T02:43:13.776Z,101024.09
2023-04-09T02:45:41.975Z,101023.58
2023-04-09T02:48:09.979Z,101015.62
2023-04-09T02:50:37.936Z,101020.23
2023-04-09T02:53:06.091Z,101019.35
2023-04-09T02:55:34.072Z,101013.75
2023-04-09T02:58:02.125Z,101016.23
2023-04-09T03:00:30.135Z,101020.83
2023-04-09T03:02:58.487Z,101017.69
2023-04-09T03:05:26.959Z,101015.45
2023-04-09T03:07:55.133Z,101014.98
2023-04-09T03:10:23.203Z,101013.46
2023-04-09T03:12:51.483Z,101016.28
2023-04-09T03:15:19.556Z,101013.23
2023-04-09T03:17:47.455Z,101010.33
2023-04-09T03:20:15.619Z,101012.60
2023-04-09T03:22:43.761Z,101010.55
2023-04-09T03:25:21.357Z,101010.73
2023-04-09T03:27:50.185Z,101007.80
2023-04-09T03:30:23.845Z,101003.49
2023-04-09T03:32:51.883Z,101004.56
2023-04-09T03:35:21.837Z,101001.32
2023-04-09T03:37:50.925Z,101000.67
2023-04-09T03:40:19.007Z,101003.84
2023-04-09T03:42:47.210Z,101005.73
2023-04-09T03:45:16.475Z,101007.67
2023-04-09T03:47:46.994Z,101005.99
2023-04-09T03:50:15.211Z,101003.77
2023-04-09T03:52:52.487Z,101008.44
2023-04-09T03:55:21.246Z,101010.02
2023-04-09T03:57:49.362Z,101013.52
2023-04-09T04:00:19.172Z,101016.77
2023-04-09T04:03:07.014Z,101020.20
2023-04-09T04:05:50.055Z,101025.52
2023-04-09T04:08:18.365Z,101029.98
2023-04-09T04:10:46.943Z,101028.08
2023-04-09T04:13:16.220Z,101029.30
2023-04-09T04:15:50.062Z,101029.27
2023-04-09T04:18:21.605Z,101033.33
2023-04-09T04:20:52.128Z,101035.54
2023-04-09T04:23:20.430Z,101041.91
2023-04-09T04:26:11.250Z,101041.43
2023-04-09T04:28:40.955Z,101043.52
2023-04-09T04:31:11.821Z,101041.62
2023-04-09T04:33:42.812Z,101037.98
2023-04-09T04:36:14.871Z,101039.50
2023-04-09T04:38:46.333Z,101039.47
2023-04-09T04:41:21.980Z,101040.30
2023-04-09T04:43:57.531Z,101040.25
2023-04-09T04:46:25.714Z,101037.75
2023-04-09T04:48:54.117Z,101042.70
2023-04-09T04:51:22.947Z,101043.73
2023-04-09T04:54:01.589Z,101044.82
2023-04-09T04:56:30.095Z,101045.29
2023-04-09T04:59:09.175Z,101041.14
2023-04-09T05:01:47.778Z,101043.55
2023-04-09T05:04:16.480Z,101043.92
2023-04-09T05:06:44.461Z,101044.11
2023-04-09T05:09:14.979Z,101042.23
2023-04-09T05:11:49.720Z,101048.92
2023-04-09T05:14:21.768Z,101051.63
2023-04-09T05:16:50.065Z,101051.52
2023-04-09T05:19:19.799Z,101051.27
2023-04-09T05:21:48.236Z,101050.62
2023-04-09T05:24:21.124Z,101049.11
2023-04-09T05:26:49.223Z,101046.64
2023-04-09T05:29:17.984Z,101050.42
2023-04-09T05:31:46.415Z,101047.83
2023-04-09T05:34:47.518Z,101049.48
2023-04-09T05:37:16.496Z,101045.23
2023-04-09T05:39:47.719Z,101043.30
2023-04-09T05:42:16.428Z,101046.77
2023-04-09T05:45:12.677Z,101048.48
2023-04-09T05:47:47.521Z,101047.39
2023-04-09T05:50:21.044Z,101048.87
2023-04-09T05:52:50.599Z,101049.51
2023-04-09T05:55:18.883Z,101052.23
2023-04-09T05:57:53.498Z,101052.41
2023-04-09T06:00:22.192Z,101053.67
2023-04-09T06:02:51.053Z,101057.37
2023-04-09T06:05:19.123Z,101054.80
2023-04-09T06:07:48.760Z,101056.80
2023-04-09T06:10:16.927Z,101061.62
2023-04-09T06:12:45.558Z,101060.08
2023-04-09T06:15:13.578Z,101058.10
2023-04-09T06:17:41.605Z,101058.31
2023-04-09T06:20:10.581Z,101054.45
2023-04-09T06:22:38.512Z,101053.83
2023-04-09T06:25:07.413Z,101054.77
2023-04-09T06:27:35.809Z,101057.16
2023-04-09T06:30:04.153Z,101060.17
2023-04-09T06:32:33.766Z,101059.44
2023-04-09T06:35:10.818Z,101063.49
2023-04-09T06:37:39.431Z,101062.41
2023-04-09T06:40:08.538Z,101064.36
2023-04-09T06:42:36.794Z,101066.59
2023-04-09T06:45:16.487Z,101068.58
2023-04-09T06:47:45.672Z,101063.67
2023-04-09T06:50:14.015Z,101060.96
2023-04-09T06:52:42.230Z,101062.91
2023-04-09T06:55:10.892Z,101063.13
2023-04-09T06:57:39.468Z,101065.95
2023-04-09T07:00:08.586Z,101066.83
2023-04-09T07:02:37.901Z,101065.00
2023-04-09T07:05:06.768Z,101072.17
2023-04-09T07:07:34.762Z,101076.28
2023-04-09T07:10:03.026Z,101075.90
2023-04-09T07:12:32.950Z,101076.73
2023-04-09T07:15:03.043Z,101077.18
2023-04-09T07:17:31.827Z,101083.11
2023-04-09T07:20:00.275Z,101080.00
2023-04-09T07:22:29.482Z,101079.52
2023-04-09T07:24:57.762Z,101084.09
2023-04-09T07:27:27.997Z,101083.19
2023-04-09T07:29:57.816Z,101083.14
2023-04-09T07:32:28.555Z,101081.14
2023-04-09T07:34:57.684Z,101077.79
2023-04-09T07:37:27.327Z,101080.20
2023-04-09T07:39:55.742Z,101085.98
2023-04-09T07:42:24.089Z,101083.65
2023-04-09T07:44:52.075Z,101086.61
2023-04-09T07:47:20.077Z,101088.30
2023-04-09T07:49:48.196Z,101089.85
2023-04-09T07:52:16.474Z,101090.48
2023-04-09T07:54:44.453Z,101087.61
2023-04-09T07:57:12.433Z,101085.86
2023-04-09T07:59:41.142Z,101085.48
2023-04-09T08:02:09.454Z,101084.45
2023-04-09T08:04:38.504Z,101080.48
2023-04-09T08:07:06.676Z,101075.95
2023-04-09T08:09:34.617Z,101080.80
2023-04-09T08:12:02.853Z,101077.94
2023-04-09T08:14:30.878Z,101077.08
2023-04-09T08:17:00.363Z,101074.27
2023-04-09T08:19:28.548Z,101076.48
2023-04-09T08:21:56.938Z,101073.11
2023-04-09T08:24:25.085Z,101071.80
2023-04-09T08:26:53.274Z,101072.02
2023-04-09T08:29:21.744Z,101073.10
2023-04-09T08:31:49.967Z,101070.36
2023-04-09T08:34:21.305Z,101070.27
2023-04-09T08:36:50.337Z,101072.31
2023-04-09T08:39:21.707Z,101072.02
2023-04-09T08:41:52.044Z,101066.10
2023-04-09T08:44:21.992Z,101066.58
2023-04-09T08:46:51.348Z,101064.10
2023-04-09T08:49:19.829Z,101072.64
2023-04-09T08:51:51.072Z,101070.66
2023-04-09T08:54:22.012Z,101076.61
2023-04-09T08:56:50.001Z,101075.89
2023-04-09T08:59:21.206Z,101076.73
2023-04-09T09:01:54.586Z,101079.67
2023-04-09T09:04:22.888Z,101078.24
2023-04-09T09:06:51.370Z,101080.97
2023-04-09T09:09:19.762Z,101082.98
2023-04-09T09:11:51.183Z,101079.05
2023-04-09T09:14:20.295Z,101078.38
2023-04-09T09:16:58.015Z,101081.33
2023-04-09T09:19:26.603Z,101079.98
2023-04-09T09:22:06.730Z,101084.83
2023-04-09T09:24:48.358Z,101082.38
2023-04-09T09:27:40.816Z,101089.88
2023-04-09T09:30:11.041Z,101091.52
2023-04-09T09:32:39.460Z,101086.92
2023-04-09T09:35:08.293Z,101084.61
2023-04-09T09:37:36.569Z,101087.66
2023-04-09T09:40:05.940Z,101085.73
2023-04-09T09:42:34.215Z,101082.49
2023-04-09T09:45:17.648Z,101076.16
2023-04-09T09:47:46.795Z,101073.41
2023-04-09T09:50:15.026Z,101078.05
2023-04-09T09:52:46.668Z,101075.92
2023-04-09T09:55:17.504Z,101079.42
2023-04-09T09:57:48.610Z,101079.05
2023-04-09T10:00:18.618Z,101073.09
2023-04-09T10:02:57.679Z,101072.11
2023-04-09T10:05:27.884Z,101075.76
2023-04-09T10:07:58.261Z,101074.20
2023-04-09T10:10:27.886Z,101073.34
2023-04-09T10:12:56.737Z,101073.72
2023-04-09T10:15:26.408Z,101070.84
2023-04-09T10:17:56.260Z,101073.72
2023-04-09T10:20:42.141Z,101068.31
2023-04-09T10:23:19.838Z,101070.04
2023-04-09T10:25:47.865Z,101069.88
2023-04-09T10:28:18.861Z,101065.02
2023-04-09T10:30:46.986Z,101062.39
2023-04-09T10:33:17.617Z,101063.83
2023-04-09T10:35:49.035Z,101063.38
2023-04-09T10:38:16.995Z,101065.30
2023-04-09T10:40:53.498Z,101063.31
2023-04-09T10:43:22.437Z,101059.45
2023-04-09T10:45:54.558Z,101064.90
2023-04-09T10:48:26.262Z,101054.85
2023-04-09T10:50:55.558Z,101055.11
2023-04-09T10:53:25.718Z,101055.09
2023-04-09T10:55:54.564Z,101058.59
2023-04-09T10:58:22.561Z,101053.11
2023-04-09T11:00:51.837Z,101053.37
2023-04-09T11:03:29.040Z,101055.41
2023-04-09T11:06:11.814Z,101051.61
2023-04-09T11:08:39.906Z,101051.91
2023-04-09T11:11:08.091Z,101053.16
2023-04-09T11:13:36.376Z,101049.70
2023-04-09T11:16:07.360Z,101048.39
2023-04-09T11:18:37.317Z,101048.53
2023-04-09T11:21:06.002Z,101047.05
2023-04-09T11:23:34.479Z,101047.33
2023-04-09T11:26:03.003Z,101050.31
2023-04-09T11:28:31.279Z,101046.45
2023-04-09T11:30:59.311Z,101048.16
2023-04-09T11:33:34.533Z,101048.79
2023-04-09T11:36:05.901Z,101049.10
2023-04-09T11:38:34.007Z,101052.64
2023-04-09T11:41:02.363Z,101053.20
2023-04-09T11:43:30.406Z,101056.60
2023-04-09T11:45:59.634Z,101055.45
2023-04-09T11:48:28.187Z,101055.13
2023-04-09T11:50:57.492Z,101050.86
2023-04-09T11:53:31.201Z,101052.63
2023-04-09T11:55:59.773Z,101055.73
2023-04-09T11:58:28.261Z,101056.02
2023-04-09T12:00:58.976Z,101054.34
2023-04-09T12:03:33.460Z,101051.00
2023-04-09T12:06:03.792Z,101050.68
2023-04-09T12:08:35.154Z,101051.69
2023-04-09T12:11:10.781Z,101051.05
2023-04-09T12:13:44.767Z,101050.75
2023-04-09T12:16:13.928Z,101050.80
2023-04-09T12:18:42.053Z,101053.98
2023-04-09T12:21:10.505Z,101053.08
2023-04-09T12:23:38.775Z,101054.14
2023-04-09T12:26:06.850Z,101049.80
2023-04-09T12:28:36.052Z,101046.85
2023-04-09T12:31:04.114Z,101043.30
2023-04-09T12:33:32.598Z,101043.93
2023-04-09T12:36:00.790Z,101041.41
2023-04-09T12:38:29.049Z,101042.77
2023-04-09T12:40:57.259Z,101042.40
2023-04-09T12:43:25.593Z,101038.10
2023-04-09T12:45:53.601Z,101034.05
2023-04-09T12:48:21.650Z,101032.41
2023-04-09T12:50:49.717Z,101035.70
2023-04-09T12:53:17.887Z,101030.20
2023-04-09T12:55:46.043Z,101026.26
2023-04-09T12:58:13.954Z,101027.25
2023-04-09T13:00:42.012Z,101025.45
2023-04-09T13:03:10.282Z,101022.38
2023-04-09T13:05:38.455Z,101021.73
2023-04-09T13:08:07.051Z,101023.38
2023-04-09T13:10:35.919Z,101020.85
2023-04-09T13:13:03.986Z,101019.41
2023-04-09T13:15:32.471Z,101022.48
2023-04-09T13:18:00.549Z,101018.94
2023-04-09T13:20:28.498Z,101015.92
2023-04-09T13:22:57.086Z,101015.79
2023-04-09T13:25:25.161Z,101016.39
2023-04-09T13:27:53.229Z,101010.08
2023-04-09T13:30:24.376Z,101009.67
2023-04-09T13:32:52.430Z,101007.92
2023-04-09T13:35:20.627Z,101010.55
2023-04-09T13:37:48.785Z,101006.66
2023-04-09T13:40:17.286Z,101004.64
2023-04-09T13:42:45.548Z,101003.52
2023-04-09T13:45:13.753Z,101003.65
2023-04-09T13:47:43.222Z,101000.16
2023-04-09T13:50:13.260Z,101000.70
2023-04-09T13:52:41.309Z,101000.07
2023-04-09T13:55:09.792Z,101000.98
2023-04-09T13:57:37.712Z,101003.04
2023-04-09T14:00:09.277Z,101000.37
2023-04-09T14:02:37.336Z,100999.46
2023-04-09T14:05:06.165Z,101001.02
2023-04-09T14:07:34.211Z,100997.00
2023-04-09T14:10:02.930Z,100997.40
2023-04-09T14:12:31.304Z,100990.48
2023-04-09T14:14:59.289Z,100993.67
2023-04-09T14:17:27.404Z,100992.45
2023-04-09T14:19:55.519Z,100992.39
2023-04-09T14:22:23.499Z,100990.48
2023-04-09T14:24:51.670Z,100989.92
2023-04-09T14:27:20.088Z,100992.22
2023-04-09T14:29:48.922Z,100991.48
2023-04-09T14:32:17.537Z,100987.00
2023-04-09T14:34:46.861Z,100982.90
2023-04-09T14:37:14.889Z,100981.46
2023-04-09T14:39:42.962Z,100980.90
2023-04-09T14:42:11.124Z,100980.17
2023-04-09T14:44:39.195Z,100978.46
2023-04-09T14:47:07.365Z,100977.64
2023-04-09T14:49:35.445Z,100982.23
2023-04-09T14:52:03.888Z,100982.41
2023-04-09T14:54:33.369Z,100977.36
2023-04-09T14:57:03.685Z,100978.13
2023-04-09T14:59:31.741Z,100974.38
2023-04-09T15:01:59.925Z,100977.39
2023-04-09T15:04:28.369Z,100979.29
2023-04-09T15:06:56.445Z,100981.91
2023-04-09T15:09:24.770Z,100981.09
2023-04-09T15:11:54.348Z,100979.90
2023-04-09T15:14:23.843Z,100983.17
2023-04-09T15:16:55.980Z,100983.38
2023-04-09T15:19:24.181Z,100984.17
2023-04-09T15:21:52.154Z,100984.23
2023-04-09T15:24:20.726Z,100982.80
2023-04-09T15:26:49.877Z,100984.70
2023-04-09T15:29:19.056Z,100982.77
2023-04-09T15:31:47.334Z,100989.50
2023-04-09T15:34:16.183Z,100987.83
2023-04-09T15:36:46.122Z,100987.19
2023-04-09T15:39:14.232Z,100989.95
2023-04-09T15:41:42.156Z,100992.82
2023-04-09T15:44:10.506Z,100990.69
2023-04-09T15:46:38.803Z,100990.84
2023-04-09T15:49:07.066Z,100988.66
2023-04-09T15:51:35.038Z,100990.02
2023-04-09T15:54:03.006Z,100986.65
2023-04-09T15:56:31.185Z,100985.67
2023-04-09T15:59:02.222Z,100985.55
2023-04-09T16:01:30.861Z,100988.46
2023-04-09T16:03:59.134Z,100991.10
2023-04-09T16:06:27.664Z,100989.61
2023-04-09T16:08:56.835Z,100992.52
2023-04-09T16:11:24.890Z,100993.33
2023-04-09T16:13:54.517Z,100995.75
2023-04-09T16:16:24.124Z,100999.06
2023-04-09T16:18:52.985Z,100999.50
2023-04-09T16:21:21.751Z,100999.73
2023-04-09T16:23:49.808Z,101001.98
2023-04-09T16:26:17.746Z,100999.20
2023-04-09T16:28:45.885Z,101002.97
2023-04-09T16:31:14.220Z,101000.26
2023-04-09T16:33:42.135Z,101004.95
2023-04-09T16:36:10.420Z,101010.94
2023-04-09T16:38:38.544Z,101009.37
2023-04-09T16:41:06.612Z,101010.90
2023-04-09T16:43:34.679Z,101009.36
2023-04-09T16:46:02.867Z,101011.17
2023-04-09T16:48:31.372Z,101012.77
2023-04-09T16:50:59.292Z,101013.14
2023-04-09T16:53:27.945Z,101014.55
2023-04-09T16:55:55.914Z,101015.23
2023-04-09T16:58:24.050Z,101020.10
2023-04-09T17:00:52.353Z,101022.20
2023-04-09T17:03:20.833Z,101021.89
2023-04-09T17:05:49.515Z,101025.18
2023-04-09T17:08:21.847Z,101024.39
2023-04-09T17:11:02.369Z,101021.08
2023-04-09T17:13:34.314Z,101024.88
2023-04-09T17:16:02.970Z,101026.42
2023-04-09T17:18:31.112Z,101026.40
2023-04-09T17:20:59.880Z,101025.59
2023-04-09T17:23:28.001Z,101023.39
2023-04-09T17:25:57.147Z,101028.30
2023-04-09T17:28:25.822Z,101027.28
2023-04-09T17:30:53.919Z,101030.04
2023-04-09T17:33:23.368Z,101034.39
2023-04-09T17:35:51.539Z,101033.91
2023-04-09T17:38:21.753Z,101035.08
2023-04-09T17:40:49.940Z,101040.05
2023-04-09T17:43:18.608Z,101039.30
2023-04-09T17:45:49.354Z,101040.99
2023-04-09T17:48:18.353Z,101043.91
2023-04-09T17:50:47.364Z,101045.64
2023-04-09T17:53:15.359Z,101048.73
2023-04-09T17:55:48.874Z,101052.58
2023-04-09T17:58:17.359Z,101056.54
2023-04-09T18:00:45.528Z,101056.81
2023-04-09T18:03:13.727Z,101058.86
2023-04-09T18:05:42.754Z,101059.73
2023-04-09T18:08:10.867Z,101064.34
2023-04-09T18:10:38.904Z,101065.75
2023-04-09T18:13:07.057Z,101069.14
2023-04-09T18:15:35.107Z,101071.70
2023-04-09T18:18:03.181Z,101074.94
2023-04-09T18:20:31.123Z,101083.52
2023-04-09T18:22:59.116Z,101084.33
2023-04-09T18:25:28.796Z,101087.33
2023-04-09T18:27:57.383Z,101089.42
2023-04-09T18:30:26.523Z,101086.95
2023-04-09T18:32:54.590Z,101088.84
2023-04-09T18:35:22.945Z,101092.46
2023-04-09T18:37:51.369Z,101093.85
2023-04-09T18:40:20.405Z,101096.98
2023-04-09T18:42:52.621Z,101098.61
2023-04-09T18:45:20.758Z,101102.19
2023-04-09T18:47:48.852Z,101102.08
2023-04-09T18:50:18.833Z,101105.06
2023-04-09T18:52:46.897Z,101106.44
2023-04-09T18:55:15.904Z,101108.41
2023-04-09T18:57:44.504Z,101111.61
2023-04-09T19:00:13.167Z,101111.60
2023-04-09T19:02:41.574Z,101114.23
2023-04-09T19:05:10.578Z,101112.52
2023-04-09T19:07:38.931Z,101114.27
2023-04-09T19:10:07.647Z,101113.42
2023-04-09T19:12:35.711Z,101110.36
2023-04-09T19:15:05.107Z,101109.85
2023-04-09T19:17:34.238Z,101109.58
2023-04-09T19:20:03.368Z,101107.55
2023-04-09T19:22:31.543Z,101106.89
2023-04-09T19:24:59.549Z,101109.57
2023-04-09T19:27:27.649Z,101108.98
2023-04-09T19:29:59.069Z,101110.60
2023-04-09T19:32:27.741Z,101106.97
2023-04-09T19:34:56.051Z,101108.54
2023-04-09T19:37:28.336Z,101107.67
2023-04-09T19:39:57.978Z,101107.94
2023-04-09T19:42:28.870Z,101105.43
2023-04-09T19:44:56.978Z,101104.15
2023-04-09T19:47:25.093Z,101103.05
2023-04-09T19:49:56.395Z,101103.54
2023-04-09T19:52:24.431Z,101107.48
2023-04-09T19:54:57.083Z,101106.44
2023-04-09T19:57:26.662Z,101105.45
2023-04-09T19:59:55.624Z,101107.40
2023-04-09T20:02:24.188Z,101110.60
2023-04-09T20:04:52.606Z,101107.87
2023-04-09T20:07:20.890Z,101110.70
2023-04-09T20:09:49.793Z,101109.56
2023-04-09T20:12:17.840Z,101104.80
2023-04-09T20:14:49.002Z,101107.95
2023-04-09T20:17:19.970Z,101108.66
2023-04-09T20:19:47.907Z,101108.59
2023-04-09T20:22:17.088Z,101114.43
2023-04-09T20:24:45.018Z,101108.88
2023-04-09T20:27:13.024Z,101112.14
2023-04-09T20:29:42.221Z,101109.70
2023-04-09T20:32:10.435Z,101109.90
2023-04-09T20:34:38.465Z,101108.86
2023-04-09T20:37:06.845Z,101107.98
2023-04-09T20:39:34.818Z,101108.71
2023-04-09T20:42:02.784Z,101106.49
2023-04-09T20:44:33.806Z,101103.43
2023-04-09T20:47:02.956Z,101103.92
2023-04-09T20:49:30.995Z,101103.17
2023-04-09T20:51:59.710Z,101100.13
2023-04-09T20:54:29.633Z,101104.83
2023-04-09T20:56:57.965Z,101101.92
2023-04-09T20:59:26.572Z,101103.96
2023-04-09T21:01:57.360Z,101101.17
2023-04-09T21:04:26.336Z,101102.38
2023-04-09T21:06:54.753Z,101097.34
2023-04-09T21:09:22.828Z,101096.39
2023-04-09T21:11:51.202Z,101098.30
2023-04-09T21:14:19.499Z,101101.48
2023-04-09T21:16:47.784Z,101101.16
2023-04-09T21:19:16.239Z,101104.00
2023-04-09T21:21:44.182Z,101098.00
2023-04-09T21:24:12.179Z,101096.31
2023-04-09T21:26:51.176Z,101096.56
2023-04-09T21:29:23.895Z,101097.81
2023-04-09T21:31:51.862Z,101099.54
2023-04-09T21:34:20.035Z,101099.66
2023-04-09T21:36:48.734Z,101101.01
2023-04-09T21:39:16.932Z,101097.69
2023-04-09T21:41:44.976Z,101100.80
2023-04-09T21:44:13.673Z,101096.67
2023-04-09T21:46:41.951Z,101094.11
2023-04-09T21:49:10.108Z,101096.38
2023-04-09T21:51:40.128Z,101094.30
2023-04-09T21:54:09.869Z,101096.05
2023-04-09T21:56:39.552Z,101095.23
2023-04-09T21:59:07.845Z,101096.52
2023-04-09T22:01:36.091Z,101099.13
2023-04-09T22:04:04.568Z,101102.55
2023-04-09T22:06:33.375Z,101097.64
2023-04-09T22:09:02.169Z,101099.80
2023-04-09T22:11:30.746Z,101099.40
2023-04-09T22:13:59.106Z,101097.56
2023-04-09T22:16:27.420Z,101096.91
2023-04-09T22:18:56.638Z,101099.76
2023-04-09T22:21:25.485Z,101099.19
2023-04-09T22:23:53.646Z,101099.90
2023-04-09T22:26:22.229Z,101105.27
2023-04-09T22:28:50.521Z,101108.83
2023-04-09T22:31:18.552Z,101110.13
2023-04-09T22:33:46.644Z,101111.62
2023-04-09T22:36:14.938Z,101117.02
2023-04-09T22:38:42.990Z,101115.98
2023-04-09T22:41:11.064Z,101113.53
2023-04-09T22:43:39.177Z,101113.86
2023-04-09T22:46:07.411Z,101117.46
2023-04-09T22:48:40.825Z,101117.73
2023-04-09T22:51:13.895Z,101121.11
2023-04-09T22:53:42.088Z,101116.95
2023-04-09T22:56:10.215Z,101110.95
2023-04-09T22:58:39.036Z,101110.38
2023-04-09T23:01:07.819Z,101110.48
2023-04-09T23:03:36.121Z,101111.64
2023-04-09T23:06:04.383Z,101112.98
2023-04-09T23:08:32.434Z,101108.08
2023-04-09T23:11:00.434Z,101109.54
2023-04-09T23:13:28.378Z,101114.58
2023-04-09T23:15:56.389Z,101113.41
2023-04-09T23:18:24.415Z,101109.13
2023-04-09T23:20:52.483Z,101113.30
2023-04-09T23:23:20.503Z,101112.84
2023-04-09T23:25:48.436Z,101109.30
2023-04-09T23:28:16.721Z,101111.83
2023-04-09T23:30:44.668Z,101110.87
2023-04-09T23:33:12.758Z,101108.70
2023-04-09T23:35:41.213Z,101108.24
2023-04-09T23:38:09.609Z,101106.92
2023-04-09T23:40:37.561Z,101102.48
2023-04-09T23:43:05.539Z,101103.71
2023-04-09T23:45:33.528Z,101101.33
2023-04-09T23:48:02.547Z,101099.97
2023-04-09T23:50:31.026Z,101096.23
2023-04-09T23:53:01.204Z,101097.31
2023-04-09T23:55:29.368Z,101095.66
2023-04-09T23:57:57.444Z,101100.00
